createdAt,value
2017-09-30T12:34:54.845Z,23.58
2017-09-30T12:37:24.314Z,24.00
2017-09-30T12:39:53.735Z,25.30
2017-09-30T12:42:23.184Z,22.75
2017-09-30T12:44:52.669Z,22.65
2017-09-30T12:47:22.099Z,25.07
2017-09-30T12:49:51.621Z,20.01
2017-09-30T12:52:21.093Z,20.14
2017-09-30T12:54:50.587Z,22.37
2017-09-30T12:57:20.627Z,28.41
2017-09-30T12:59:50.097Z,23.58
2017-09-30T13:02:19.541Z,20.70
2017-09-30T13:04:49.009Z,21.28
2017-09-30T13:07:18.459Z,21.05
2017-09-30T13:09:47.912Z,22.14
2017-09-30T13:12:17.426Z,20.07
2017-09-30T13:14:46.887Z,21.27
2017-09-30T13:17:16.337Z,22.40
2017-09-30T13:19:45.788Z,21.84
2017-09-30T13:22:15.228Z,21.60
2017-09-30T13:24:44.695Z,22.40
2017-09-30T13:27:14.145Z,21.24
2017-09-30T13:29:43.631Z,24.18
2017-09-30T13:32:13.082Z,25.77
2017-09-30T13:34:42.528Z,22.81
2017-09-30T13:37:12.039Z,19.25
2017-09-30T13:39:41.460Z,19.73
2017-09-30T13:42:10.934Z,22.33
2017-09-30T13:44:40.400Z,20.77
2017-09-30T13:47:09.874Z,20.75
2017-09-30T13:49:39.347Z,20.79
2017-09-30T13:52:08.778Z,24.41
2017-09-30T13:54:38.225Z,22.91
2017-09-30T13:57:07.684Z,21.86
2017-09-30T13:59:37.127Z,21.27
2017-09-30T14:02:06.605Z,23.16
2017-09-30T14:04:36.043Z,23.17
2017-09-30T14:07:05.486Z,21.58
2017-09-30T14:09:34.957Z,22.69
2017-09-30T14:12:04.427Z,25.27
2017-09-30T14:14:33.909Z,27.13
2017-09-30T14:17:03.356Z,27.75
2017-09-30T14:19:32.868Z,26.83
2017-09-30T14:22:02.309Z,26.94
2017-09-30T14:24:31.900Z,27.88
2017-09-30T14:27:01.349Z,27.12
2017-09-30T14:29:30.824Z,29.69
2017-09-30T14:32:00.343Z,32.16
2017-09-30T14:34:29.800Z,34.41
2017-09-30T14:36:59.239Z,37.26
2017-09-30T14:39:28.735Z,37.60
2017-09-30T14:41:58.261Z,40.07
2017-09-30T14:44:27.756Z,40.48
2017-09-30T14:46:57.221Z,40.75
2017-09-30T14:49:26.675Z,41.46
2017-09-30T14:51:56.123Z,41.94
2017-09-30T14:54:25.568Z,42.50
2017-09-30T14:56:55.035Z,42.58
2017-09-30T14:59:25.244Z,42.78
2017-09-30T15:01:54.824Z,42.55
2017-09-30T15:04:24.287Z,42.83
2017-09-30T15:06:53.773Z,43.32
2017-09-30T15:09:23.326Z,43.85
2017-09-30T15:11:52.820Z,44.15
2017-09-30T15:14:22.912Z,43.97
2017-09-30T15:16:52.418Z,43.97
2017-09-30T15:19:22.054Z,44.38
2017-09-30T15:21:51.969Z,44.23
2017-09-30T15:24:21.456Z,44.84
2017-09-30T15:26:50.896Z,45.32
2017-09-30T15:29:20.400Z,44.79
2017-09-30T15:31:49.845Z,45.36
2017-09-30T15:34:19.320Z,45.34
2017-09-30T15:36:49.320Z,45.58
2017-09-30T15:39:19.032Z,45.53
2017-09-30T15:41:48.487Z,45.76
2017-09-30T15:44:17.974Z,46.19
2017-09-30T15:46:47.546Z,46.25
2017-09-30T15:49:16.920Z,46.39
2017-09-30T15:51:48.186Z,46.76
2017-09-30T15:54:19.467Z,46.91
2017-09-30T15:56:49.139Z,47.25
2017-09-30T15:59:18.817Z,47.01
2017-09-30T16:01:48.851Z,47.62
2017-09-30T16:04:18.560Z,47.71
2017-09-30T16:06:48.500Z,48.01
2017-09-30T16:09:18.404Z,48.18
2017-09-30T16:11:48.321Z,48.41
2017-09-30T16:14:18.253Z,48.73
2017-09-30T16:16:47.849Z,48.86
2017-09-30T16:19:17.327Z,49.17
2017-09-30T16:21:46.787Z,49.56
2017-09-30T16:24:16.241Z,49.64
2017-09-30T16:26:45.709Z,50.16
2017-09-30T16:29:15.174Z,50.81
2017-09-30T16:31:45.248Z,49.95
2017-09-30T16:34:14.857Z,50.81
2017-09-30T16:36:44.584Z,51.18
2017-09-30T16:39:14.311Z,51.43
2017-09-30T16:41:44.084Z,51.55
2017-09-30T16:44:14.316Z,51.30
2017-09-30T16:46:44.013Z,50.79
2017-09-30T16:49:13.689Z,51.41
2017-09-30T16:51:43.155Z,52.09
2017-09-30T16:54:12.619Z,52.71
2017-09-30T16:56:42.149Z,54.55
2017-09-30T16:59:11.870Z,56.00
2017-09-30T17:01:41.621Z,57.26
2017-09-30T17:04:11.162Z,57.75
2017-09-30T17:06:40.802Z,56.27
2017-09-30T17:09:10.372Z,57.66
2017-09-30T17:11:39.982Z,53.74
2017-09-30T17:14:10.019Z,51.79
2017-09-30T17:16:39.821Z,50.92
2017-09-30T17:19:09.678Z,51.02
2017-09-30T17:21:39.381Z,51.03
2017-09-30T17:24:09.041Z,50.50
2017-09-30T17:26:38.797Z,51.18
2017-09-30T17:29:08.513Z,51.21
2017-09-30T17:31:37.953Z,51.53
2017-09-30T17:34:07.411Z,52.53
2017-09-30T17:36:36.996Z,52.30
2017-09-30T17:39:06.693Z,52.66
2017-09-30T17:41:36.235Z,52.32
2017-09-30T17:44:05.722Z,51.69
2017-09-30T17:46:35.565Z,50.57
2017-09-30T17:49:06.984Z,50.46
2017-09-30T17:51:36.789Z,51.02
2017-09-30T17:54:06.312Z,51.11
2017-09-30T17:56:37.004Z,52.84
2017-09-30T17:59:07.582Z,52.90
2017-09-30T18:01:37.712Z,51.90
2017-09-30T18:04:08.987Z,52.64
2017-09-30T18:06:38.688Z,53.55
2017-09-30T18:09:09.952Z,55.16
2017-09-30T18:11:41.337Z,56.22
2017-09-30T18:14:12.456Z,55.77
2017-09-30T18:16:43.403Z,56.86
2017-09-30T18:19:13.813Z,57.80
2017-09-30T18:21:43.793Z,58.67
2017-09-30T18:24:13.731Z,58.92
2017-09-30T18:26:45.132Z,58.69
2017-09-30T18:29:15.522Z,60.86
2017-09-30T18:31:49.355Z,60.85
2017-09-30T18:34:19.000Z,61.65
2017-09-30T18:36:49.117Z,59.23
2017-09-30T18:39:20.685Z,59.15
2017-09-30T18:41:50.604Z,58.68
2017-09-30T18:44:21.207Z,59.61
2017-09-30T18:46:51.534Z,59.84
2017-09-30T18:49:21.762Z,60.37
2017-09-30T18:51:51.599Z,61.63
2017-09-30T18:54:22.444Z,62.40
2017-09-30T18:56:51.965Z,63.28
2017-09-30T18:59:21.456Z,63.82
2017-09-30T19:01:51.145Z,64.09
2017-09-30T19:04:20.768Z,64.31
2017-09-30T19:06:51.229Z,64.10
2017-09-30T19:09:21.093Z,62.93
2017-09-30T19:11:51.174Z,62.87
2017-09-30T19:14:23.278Z,63.17
2017-09-30T19:16:53.353Z,63.30
2017-09-30T19:19:22.790Z,63.75
2017-09-30T19:21:52.249Z,62.99
2017-09-30T19:24:22.239Z,63.24
2017-09-30T19:26:51.914Z,62.81
2017-09-30T19:29:22.329Z,63.27
2017-09-30T19:31:52.490Z,63.06
2017-09-30T19:34:22.507Z,62.85
2017-09-30T19:36:53.018Z,62.81
2017-09-30T19:39:22.811Z,62.95
2017-09-30T19:41:52.723Z,63.19
2017-09-30T19:44:23.386Z,62.92
2017-09-30T19:46:53.965Z,62.73
2017-09-30T19:49:23.826Z,63.47
2017-09-30T19:51:54.349Z,64.79
2017-09-30T19:54:25.577Z,63.25
2017-09-30T19:56:56.336Z,63.40
2017-09-30T19:59:26.275Z,63.95
2017-09-30T20:01:56.262Z,63.56
2017-09-30T20:04:25.804Z,62.72
2017-09-30T20:06:57.596Z,62.93
2017-09-30T20:09:28.152Z,62.90
2017-09-30T20:11:58.419Z,64.31
2017-09-30T20:14:28.388Z,63.60
2017-09-30T20:16:58.225Z,63.28
2017-09-30T20:19:28.393Z,65.14
2017-09-30T20:21:58.781Z,63.55
2017-09-30T20:24:28.677Z,64.90
2017-09-30T20:26:58.434Z,62.16
2017-09-30T20:29:28.521Z,62.85
2017-09-30T20:31:58.954Z,63.56
2017-09-30T20:34:29.309Z,60.72
2017-09-30T20:36:58.907Z,61.45
2017-09-30T20:39:30.262Z,62.69
2017-09-30T20:42:00.189Z,63.90
2017-09-30T20:44:30.063Z,64.60
2017-09-30T20:46:59.890Z,65.35
2017-09-30T20:49:29.653Z,65.61
2017-09-30T20:51:59.154Z,66.25
2017-09-30T20:54:28.901Z,67.20
2017-09-30T20:56:58.660Z,67.87
2017-09-30T20:59:28.439Z,68.03
2017-09-30T21:01:58.198Z,67.75
2017-09-30T21:04:28.259Z,67.24
2017-09-30T21:06:58.026Z,67.03
2017-09-30T21:09:27.778Z,67.43
2017-09-30T21:11:57.501Z,67.15
2017-09-30T21:14:27.244Z,67.45
2017-09-30T21:16:56.997Z,68.06
2017-09-30T21:19:26.745Z,68.51
2017-09-30T21:21:56.364Z,68.65
2017-09-30T21:24:26.144Z,69.31
2017-09-30T21:26:55.903Z,69.62
2017-09-30T21:29:25.668Z,70.13
2017-09-30T21:31:55.426Z,70.76
2017-09-30T21:34:25.244Z,71.07
2017-09-30T21:36:55.027Z,71.07
2017-09-30T21:39:24.808Z,71.72
2017-09-30T21:41:54.272Z,71.73
2017-09-30T21:44:24.018Z,71.75
2017-09-30T21:46:53.766Z,71.58
2017-09-30T21:49:23.636Z,71.99
2017-09-30T21:51:53.387Z,71.55
2017-09-30T21:54:23.218Z,71.46
2017-09-30T21:56:52.975Z,71.93
2017-09-30T21:59:22.801Z,70.82
2017-09-30T22:01:52.206Z,70.14
2017-09-30T22:04:21.967Z,69.84
2017-09-30T22:06:51.715Z,70.60
2017-09-30T22:09:21.488Z,71.81
2017-09-30T22:11:51.350Z,72.04
2017-09-30T22:14:21.076Z,73.18
2017-09-30T22:16:50.825Z,73.32
2017-09-30T22:19:20.578Z,73.71
2017-09-30T22:21:50.308Z,73.62
2017-09-30T22:24:20.068Z,73.64
2017-09-30T22:26:49.804Z,73.93
2017-09-30T22:29:19.554Z,74.42
2017-09-30T22:31:49.301Z,74.84
2017-09-30T22:34:19.278Z,75.28
2017-09-30T22:36:49.087Z,74.70
2017-09-30T22:39:18.875Z,74.80
2017-09-30T22:41:48.691Z,75.64
2017-09-30T22:44:18.435Z,74.80
2017-09-30T22:46:48.198Z,75.76
2017-09-30T22:49:17.962Z,76.13
2017-09-30T22:51:47.715Z,76.30
2017-09-30T22:54:17.486Z,76.90
2017-09-30T22:56:47.266Z,77.40
2017-09-30T22:59:17.037Z,77.52
2017-09-30T23:01:46.776Z,78.12
2017-09-30T23:04:16.530Z,78.14
2017-09-30T23:06:46.135Z,78.45
2017-09-30T23:09:15.883Z,78.86
2017-09-30T23:11:45.638Z,79.35
2017-09-30T23:14:15.454Z,79.02
2017-09-30T23:16:45.188Z,79.03
2017-09-30T23:19:14.954Z,79.60
2017-09-30T23:21:44.505Z,80.37
2017-09-30T23:24:14.307Z,80.74
2017-09-30T23:26:43.895Z,80.59
2017-09-30T23:29:13.685Z,81.14
2017-09-30T23:31:43.430Z,80.86
2017-09-30T23:34:13.251Z,80.60
2017-09-30T23:36:42.989Z,80.50
2017-09-30T23:39:12.732Z,81.19
2017-09-30T23:41:42.513Z,81.60
2017-09-30T23:44:12.306Z,81.94
2017-09-30T23:46:42.080Z,82.67
2017-09-30T23:49:11.826Z,81.57
2017-09-30T23:51:41.586Z,81.93
2017-09-30T23:54:11.330Z,82.08
2017-09-30T23:56:41.148Z,82.33
2017-09-30T23:59:10.516Z,82.68
